sensor_id;sensor_type;location;lat;lon;timestamp;P1;durP1;ratioP1;P2;durP2;ratioP2
49139;SDS011;34959;49.310;8.646;2023-03-14T00:03:38;1.55;;;0.40;;
49139;SDS011;34959;49.310;8.646;2023-03-14T00:06:04;1.60;;;0.38;;
49139;SDS011;34959;49.310;8.646;2023-03-14T00:08:30;4.18;;;0.60;;
49139;SDS011;34959;49.310;8.646;2023-03-14T00:10:55;1.30;;;0.40;;
49139;SDS011;34959;49.310;8.646;2023-03-14T00:13:23;1.88;;;0.43;;
49139;SDS011;34959;49.310;8.646;2023-03-14T00:15:49;3.03;;;0.55;;
49139;SDS011;34959;49.310;8.646;2023-03-14T00:18:14;0.95;;;0.30;;
49139;SDS011;34959;49.310;8.646;2023-03-14T00:20:39;1.00;;;0.30;;
49139;SDS011;34959;49.310;8.646;2023-03-14T00:23:05;2.25;;;0.57;;
49139;SDS011;34959;49.310;8.646;2023-03-14T00:25:30;1.35;;;0.35;;
49139;SDS011;34959;49.310;8.646;2023-03-14T00:27:56;1.15;;;0.40;;
49139;SDS011;34959;49.310;8.646;2023-03-14T00:30:21;0.57;;;0.22;;
49139;SDS011;34959;49.310;8.646;2023-03-14T00:32:46;2.30;;;0.25;;
49139;SDS011;34959;49.310;8.646;2023-03-14T00:35:12;2.10;;;0.30;;
49139;SDS011;34959;49.310;8.646;2023-03-14T00:37:37;1.50;;;0.43;;
49139;SDS011;34959;49.310;8.646;2023-03-14T00:40:03;0.40;;;0.30;;
49139;SDS011;34959;49.310;8.646;2023-03-14T00:42:31;0.77;;;0.20;;
49139;SDS011;34959;49.310;8.646;2023-03-14T00:44:57;1.38;;;0.30;;
49139;SDS011;34959;49.310;8.646;2023-03-14T00:47:22;0.70;;;0.30;;
49139;SDS011;34959;49.310;8.646;2023-03-14T00:49:47;1.85;;;0.30;;
49139;SDS011;34959;49.310;8.646;2023-03-14T00:52:13;1.05;;;0.32;;
49139;SDS011;34959;49.310;8.646;2023-03-14T00:54:38;2.00;;;0.40;;
49139;SDS011;34959;49.310;8.646;2023-03-14T00:57:04;1.75;;;0.40;;
49139;SDS011;34959;49.310;8.646;2023-03-14T00:59:29;0.85;;;0.30;;
49139;SDS011;34959;49.310;8.646;2023-03-14T01:01:54;2.33;;;0.52;;
49139;SDS011;34959;49.310;8.646;2023-03-14T01:04:20;2.40;;;0.32;;
49139;SDS011;34959;49.310;8.646;2023-03-14T01:06:45;1.40;;;0.40;;
49139;SDS011;34959;49.310;8.646;2023-03-14T01:09:11;3.58;;;0.40;;
49139;SDS011;34959;49.310;8.646;2023-03-14T01:11:36;1.80;;;0.30;;
49139;SDS011;34959;49.310;8.646;2023-03-14T01:14:02;2.20;;;0.40;;
49139;SDS011;34959;49.310;8.646;2023-03-14T01:16:28;1.80;;;0.50;;
49139;SDS011;34959;49.310;8.646;2023-03-14T01:18:55;2.10;;;0.38;;
49139;SDS011;34959;49.310;8.646;2023-03-14T01:21:25;0.50;;;0.30;;
49139;SDS011;34959;49.310;8.646;2023-03-14T01:23:53;1.00;;;0.40;;
49139;SDS011;34959;49.310;8.646;2023-03-14T01:26:20;1.38;;;0.45;;
49139;SDS011;34959;49.310;8.646;2023-03-14T01:28:48;0.47;;;0.30;;
49139;SDS011;34959;49.310;8.646;2023-03-14T01:31:14;0.55;;;0.30;;
49139;SDS011;34959;49.310;8.646;2023-03-14T01:33:40;1.20;;;0.22;;
49139;SDS011;34959;49.310;8.646;2023-03-14T01:36:06;0.75;;;0.30;;
49139;SDS011;34959;49.310;8.646;2023-03-14T01:38:32;0.77;;;0.30;;
49139;SDS011;34959;49.310;8.646;2023-03-14T01:40:58;1.42;;;0.40;;
49139;SDS011;34959;49.310;8.646;2023-03-14T01:43:24;2.60;;;0.43;;
49139;SDS011;34959;49.310;8.646;2023-03-14T01:48:31;1.23;;;0.40;;
49139;SDS011;34959;49.310;8.646;2023-03-14T01:50:59;1.67;;;0.40;;
49139;SDS011;34959;49.310;8.646;2023-03-14T01:53:25;2.97;;;0.30;;
49139;SDS011;34959;49.310;8.646;2023-03-14T01:55:52;1.13;;;0.45;;
49139;SDS011;34959;49.310;8.646;2023-03-14T01:58:18;1.20;;;0.30;;
49139;SDS011;34959;49.310;8.646;2023-03-14T02:00:45;0.68;;;0.45;;
49139;SDS011;34959;49.310;8.646;2023-03-14T02:03:11;0.85;;;0.30;;
49139;SDS011;34959;49.310;8.646;2023-03-14T02:05:40;3.80;;;0.40;;
49139;SDS011;34959;49.310;8.646;2023-03-14T02:08:07;6.00;;;0.40;;
49139;SDS011;34959;49.310;8.646;2023-03-14T02:10:37;1.25;;;0.43;;
49139;SDS011;34959;49.310;8.646;2023-03-14T02:13:04;2.45;;;0.50;;
49139;SDS011;34959;49.310;8.646;2023-03-14T02:15:31;1.98;;;0.40;;
49139;SDS011;34959;49.310;8.646;2023-03-14T02:17:57;1.88;;;0.70;;
49139;SDS011;34959;49.310;8.646;2023-03-14T02:23:04;1.03;;;0.40;;
49139;SDS011;34959;49.310;8.646;2023-03-14T02:25:44;2.65;;;0.40;;
49139;SDS011;34959;49.310;8.646;2023-03-14T02:28:13;2.55;;;0.50;;
49139;SDS011;34959;49.310;8.646;2023-03-14T02:30:39;0.80;;;0.30;;
49139;SDS011;34959;49.310;8.646;2023-03-14T02:33:09;3.17;;;0.45;;
49139;SDS011;34959;49.310;8.646;2023-03-14T02:35:39;0.60;;;0.30;;
49139;SDS011;34959;49.310;8.646;2023-03-14T02:38:33;1.30;;;0.30;;
49139;SDS011;34959;49.310;8.646;2023-03-14T02:41:03;1.70;;;0.30;;
49139;SDS011;34959;49.310;8.646;2023-03-14T02:43:29;2.05;;;0.50;;
49139;SDS011;34959;49.310;8.646;2023-03-14T02:45:54;1.40;;;0.40;;
49139;SDS011;34959;49.310;8.646;2023-03-14T02:48:28;0.90;;;0.30;;
49139;SDS011;34959;49.310;8.646;2023-03-14T02:50:56;1.17;;;0.35;;
49139;SDS011;34959;49.310;8.646;2023-03-14T02:53:27;0.80;;;0.30;;
49139;SDS011;34959;49.310;8.646;2023-03-14T02:55:54;0.60;;;0.28;;
49139;SDS011;34959;49.310;8.646;2023-03-14T02:58:20;1.95;;;0.50;;
49139;SDS011;34959;49.310;8.646;2023-03-14T03:00:46;1.27;;;0.30;;
49139;SDS011;34959;49.310;8.646;2023-03-14T03:03:11;0.45;;;0.20;;
49139;SDS011;34959;49.310;8.646;2023-03-14T03:05:37;0.63;;;0.25;;
49139;SDS011;34959;49.310;8.646;2023-03-14T03:08:03;1.23;;;0.35;;
49139;SDS011;34959;49.310;8.646;2023-03-14T03:10:28;2.13;;;0.28;;
49139;SDS011;34959;49.310;8.646;2023-03-14T03:12:54;0.82;;;0.30;;
49139;SDS011;34959;49.310;8.646;2023-03-14T03:15:19;1.15;;;0.28;;
49139;SDS011;34959;49.310;8.646;2023-03-14T03:17:45;1.20;;;0.40;;
49139;SDS011;34959;49.310;8.646;2023-03-14T03:20:10;3.42;;;0.30;;
49139;SDS011;34959;49.310;8.646;2023-03-14T03:22:36;1.15;;;0.47;;
49139;SDS011;34959;49.310;8.646;2023-03-14T03:25:03;1.17;;;0.30;;
49139;SDS011;34959;49.310;8.646;2023-03-14T03:27:30;0.95;;;0.28;;
49139;SDS011;34959;49.310;8.646;2023-03-14T03:29:56;0.63;;;0.28;;
49139;SDS011;34959;49.310;8.646;2023-03-14T03:32:22;0.93;;;0.40;;
49139;SDS011;34959;49.310;8.646;2023-03-14T03:34:47;1.20;;;0.32;;
49139;SDS011;34959;49.310;8.646;2023-03-14T03:37:12;0.75;;;0.30;;
49139;SDS011;34959;49.310;8.646;2023-03-14T03:39:38;1.08;;;0.35;;
49139;SDS011;34959;49.310;8.646;2023-03-14T03:42:03;1.90;;;0.43;;
49139;SDS011;34959;49.310;8.646;2023-03-14T03:44:29;1.15;;;0.30;;
49139;SDS011;34959;49.310;8.646;2023-03-14T03:46:54;0.50;;;0.20;;
49139;SDS011;34959;49.310;8.646;2023-03-14T03:49:19;1.10;;;0.35;;
49139;SDS011;34959;49.310;8.646;2023-03-14T03:51:45;1.45;;;0.38;;
49139;SDS011;34959;49.310;8.646;2023-03-14T03:54:10;2.35;;;0.38;;
49139;SDS011;34959;49.310;8.646;2023-03-14T03:56:35;0.50;;;0.35;;
49139;SDS011;34959;49.310;8.646;2023-03-14T03:59:01;1.13;;;0.30;;
49139;SDS011;34959;49.310;8.646;2023-03-14T04:01:26;0.90;;;0.22;;
49139;SDS011;34959;49.310;8.646;2023-03-14T04:03:52;0.77;;;0.30;;
49139;SDS011;34959;49.310;8.646;2023-03-14T04:06:17;1.13;;;0.25;;
49139;SDS011;34959;49.310;8.646;2023-03-14T04:08:42;1.02;;;0.40;;
49139;SDS011;34959;49.310;8.646;2023-03-14T04:11:08;1.10;;;0.20;;
49139;SDS011;34959;49.310;8.646;2023-03-14T04:13:33;1.13;;;0.30;;
49139;SDS011;34959;49.310;8.646;2023-03-14T04:15:59;3.00;;;0.40;;
49139;SDS011;34959;49.310;8.646;2023-03-14T04:18:25;2.83;;;0.30;;
49139;SDS011;34959;49.310;8.646;2023-03-14T04:20:51;0.90;;;0.40;;
49139;SDS011;34959;49.310;8.646;2023-03-14T04:23:17;2.55;;;0.50;;
49139;SDS011;34959;49.310;8.646;2023-03-14T04:25:43;0.90;;;0.30;;
49139;SDS011;34959;49.310;8.646;2023-03-14T04:28:08;0.88;;;0.30;;
49139;SDS011;34959;49.310;8.646;2023-03-14T04:30:33;0.68;;;0.30;;
49139;SDS011;34959;49.310;8.646;2023-03-14T04:32:59;0.75;;;0.20;;
49139;SDS011;34959;49.310;8.646;2023-03-14T04:35:24;0.90;;;0.25;;
49139;SDS011;34959;49.310;8.646;2023-03-14T04:37:50;0.75;;;0.20;;
49139;SDS011;34959;49.310;8.646;2023-03-14T04:40:17;0.98;;;0.30;;
49139;SDS011;34959;49.310;8.646;2023-03-14T04:42:42;0.80;;;0.40;;
49139;SDS011;34959;49.310;8.646;2023-03-14T04:45:08;2.38;;;0.30;;
49139;SDS011;34959;49.310;8.646;2023-03-14T04:47:34;1.23;;;0.40;;
49139;SDS011;34959;49.310;8.646;2023-03-14T04:49:59;0.55;;;0.30;;
49139;SDS011;34959;49.310;8.646;2023-03-14T04:52:25;0.82;;;0.20;;
49139;SDS011;34959;49.310;8.646;2023-03-14T04:54:52;2.20;;;0.38;;
49139;SDS011;34959;49.310;8.646;2023-03-14T04:57:17;0.70;;;0.35;;
49139;SDS011;34959;49.310;8.646;2023-03-14T04:59:43;1.77;;;0.20;;
49139;SDS011;34959;49.310;8.646;2023-03-14T05:02:08;0.98;;;0.30;;
49139;SDS011;34959;49.310;8.646;2023-03-14T05:04:33;1.08;;;0.20;;
49139;SDS011;34959;49.310;8.646;2023-03-14T05:06:59;1.33;;;0.40;;
49139;SDS011;34959;49.310;8.646;2023-03-14T05:09:25;0.85;;;0.20;;
49139;SDS011;34959;49.310;8.646;2023-03-14T05:11:50;0.73;;;0.30;;
49139;SDS011;34959;49.310;8.646;2023-03-14T05:14:16;1.90;;;0.30;;
49139;SDS011;34959;49.310;8.646;2023-03-14T05:16:41;0.60;;;0.40;;
49139;SDS011;34959;49.310;8.646;2023-03-14T05:19:06;0.93;;;0.35;;
49139;SDS011;34959;49.310;8.646;2023-03-14T05:21:32;1.67;;;0.30;;
49139;SDS011;34959;49.310;8.646;2023-03-14T05:23:57;3.95;;;0.57;;
49139;SDS011;34959;49.310;8.646;2023-03-14T05:26:23;4.43;;;0.50;;
49139;SDS011;34959;49.310;8.646;2023-03-14T05:28:48;2.05;;;0.50;;
49139;SDS011;34959;49.310;8.646;2023-03-14T05:31:14;2.70;;;0.52;;
49139;SDS011;34959;49.310;8.646;2023-03-14T05:33:39;4.35;;;0.40;;
49139;SDS011;34959;49.310;8.646;2023-03-14T05:36:05;1.52;;;0.30;;
49139;SDS011;34959;49.310;8.646;2023-03-14T05:38:30;1.50;;;0.32;;
49139;SDS011;34959;49.310;8.646;2023-03-14T05:40:56;1.15;;;0.20;;
49139;SDS011;34959;49.310;8.646;2023-03-14T05:43:21;0.77;;;0.30;;
49139;SDS011;34959;49.310;8.646;2023-03-14T05:45:47;1.35;;;0.30;;
49139;SDS011;34959;49.310;8.646;2023-03-14T05:48:12;2.38;;;0.40;;
49139;SDS011;34959;49.310;8.646;2023-03-14T05:50:37;3.92;;;0.22;;
49139;SDS011;34959;49.310;8.646;2023-03-14T05:53:03;0.75;;;0.40;;
49139;SDS011;34959;49.310;8.646;2023-03-14T05:55:29;0.88;;;0.40;;
49139;SDS011;34959;49.310;8.646;2023-03-14T05:57:54;3.17;;;0.70;;
49139;SDS011;34959;49.310;8.646;2023-03-14T06:00:19;2.30;;;0.20;;
49139;SDS011;34959;49.310;8.646;2023-03-14T06:02:45;0.40;;;0.20;;
49139;SDS011;34959;49.310;8.646;2023-03-14T06:05:11;0.63;;;0.30;;
49139;SDS011;34959;49.310;8.646;2023-03-14T06:07:37;1.15;;;0.38;;
49139;SDS011;34959;49.310;8.646;2023-03-14T06:10:02;0.60;;;0.30;;
49139;SDS011;34959;49.310;8.646;2023-03-14T06:12:28;1.05;;;0.20;;
49139;SDS011;34959;49.310;8.646;2023-03-14T06:14:53;2.17;;;0.40;;
49139;SDS011;34959;49.310;8.646;2023-03-14T06:17:19;1.30;;;0.32;;
49139;SDS011;34959;49.310;8.646;2023-03-14T06:19:44;0.55;;;0.20;;
49139;SDS011;34959;49.310;8.646;2023-03-14T06:22:10;0.63;;;0.35;;
49139;SDS011;34959;49.310;8.646;2023-03-14T06:24:35;3.30;;;0.22;;
49139;SDS011;34959;49.310;8.646;2023-03-14T06:27:00;1.42;;;0.20;;
49139;SDS011;34959;49.310;8.646;2023-03-14T06:29:28;2.90;;;0.25;;
49139;SDS011;34959;49.310;8.646;2023-03-14T06:31:54;1.13;;;0.35;;
49139;SDS011;34959;49.310;8.646;2023-03-14T06:34:19;1.02;;;0.20;;
49139;SDS011;34959;49.310;8.646;2023-03-14T06:36:45;2.00;;;0.40;;
49139;SDS011;34959;49.310;8.646;2023-03-14T06:39:10;1.38;;;0.38;;
49139;SDS011;34959;49.310;8.646;2023-03-14T06:41:35;2.83;;;0.40;;
49139;SDS011;34959;49.310;8.646;2023-03-14T06:44:01;1.60;;;0.30;;
49139;SDS011;34959;49.310;8.646;2023-03-14T06:46:26;1.33;;;0.20;;
49139;SDS011;34959;49.310;8.646;2023-03-14T06:48:52;1.30;;;0.43;;
49139;SDS011;34959;49.310;8.646;2023-03-14T06:51:18;2.63;;;0.30;;
49139;SDS011;34959;49.310;8.646;2023-03-14T06:53:43;1.73;;;0.40;;
49139;SDS011;34959;49.310;8.646;2023-03-14T06:56:09;6.45;;;0.50;;
49139;SDS011;34959;49.310;8.646;2023-03-14T06:58:34;3.60;;;0.40;;
49139;SDS011;34959;49.310;8.646;2023-03-14T07:01:00;3.15;;;0.50;;
49139;SDS011;34959;49.310;8.646;2023-03-14T07:03:25;2.85;;;0.38;;
49139;SDS011;34959;49.310;8.646;2023-03-14T07:05:51;3.20;;;0.40;;
49139;SDS011;34959;49.310;8.646;2023-03-14T07:08:16;2.10;;;0.30;;
49139;SDS011;34959;49.310;8.646;2023-03-14T07:10:42;3.60;;;0.40;;
49139;SDS011;34959;49.310;8.646;2023-03-14T07:13:07;1.75;;;0.30;;
49139;SDS011;34959;49.310;8.646;2023-03-14T07:15:33;3.83;;;0.35;;
49139;SDS011;34959;49.310;8.646;2023-03-14T07:17:58;1.20;;;0.45;;
49139;SDS011;34959;49.310;8.646;2023-03-14T07:20:23;2.25;;;0.32;;
49139;SDS011;34959;49.310;8.646;2023-03-14T07:22:49;2.35;;;0.32;;
49139;SDS011;34959;49.310;8.646;2023-03-14T07:25:15;2.88;;;0.20;;
49139;SDS011;34959;49.310;8.646;2023-03-14T07:27:44;1.20;;;0.40;;
49139;SDS011;34959;49.310;8.646;2023-03-14T07:30:12;1.17;;;0.40;;
49139;SDS011;34959;49.310;8.646;2023-03-14T07:32:37;1.55;;;0.22;;
49139;SDS011;34959;49.310;8.646;2023-03-14T07:35:03;4.43;;;0.35;;
49139;SDS011;34959;49.310;8.646;2023-03-14T07:37:29;2.78;;;0.30;;
49139;SDS011;34959;49.310;8.646;2023-03-14T07:39:55;2.53;;;0.40;;
49139;SDS011;34959;49.310;8.646;2023-03-14T07:42:20;0.85;;;0.20;;
49139;SDS011;34959;49.310;8.646;2023-03-14T07:44:45;1.73;;;0.55;;
49139;SDS011;34959;49.310;8.646;2023-03-14T07:47:11;3.05;;;0.45;;
49139;SDS011;34959;49.310;8.646;2023-03-14T07:49:36;1.17;;;0.38;;
49139;SDS011;34959;49.310;8.646;2023-03-14T07:52:01;0.85;;;0.30;;
49139;SDS011;34959;49.310;8.646;2023-03-14T07:54:27;0.90;;;0.30;;
49139;SDS011;34959;49.310;8.646;2023-03-14T07:56:52;2.42;;;0.40;;
49139;SDS011;34959;49.310;8.646;2023-03-14T07:59:18;1.50;;;0.45;;
49139;SDS011;34959;49.310;8.646;2023-03-14T08:01:44;3.08;;;0.52;;
49139;SDS011;34959;49.310;8.646;2023-03-14T08:04:09;3.15;;;0.43;;
49139;SDS011;34959;49.310;8.646;2023-03-14T08:06:35;3.42;;;0.52;;
49139;SDS011;34959;49.310;8.646;2023-03-14T08:09:02;3.15;;;0.45;;
49139;SDS011;34959;49.310;8.646;2023-03-14T08:11:27;1.80;;;0.30;;
49139;SDS011;34959;49.310;8.646;2023-03-14T08:13:53;2.15;;;0.57;;
49139;SDS011;34959;49.310;8.646;2023-03-14T08:16:19;1.05;;;0.45;;
49139;SDS011;34959;49.310;8.646;2023-03-14T08:18:45;2.80;;;0.60;;
49139;SDS011;34959;49.310;8.646;2023-03-14T08:21:10;3.42;;;0.50;;
49139;SDS011;34959;49.310;8.646;2023-03-14T08:23:36;2.35;;;0.40;;
49139;SDS011;34959;49.310;8.646;2023-03-14T08:26:02;2.80;;;0.50;;
49139;SDS011;34959;49.310;8.646;2023-03-14T08:28:27;2.50;;;0.30;;
49139;SDS011;34959;49.310;8.646;2023-03-14T08:30:58;2.30;;;0.65;;
49139;SDS011;34959;49.310;8.646;2023-03-14T08:33:24;1.73;;;0.30;;
49139;SDS011;34959;49.310;8.646;2023-03-14T08:35:54;0.80;;;0.40;;
49139;SDS011;34959;49.310;8.646;2023-03-14T08:38:20;1.25;;;0.30;;
49139;SDS011;34959;49.310;8.646;2023-03-14T08:40:45;1.90;;;0.43;;
49139;SDS011;34959;49.310;8.646;2023-03-14T08:43:11;1.95;;;0.40;;
49139;SDS011;34959;49.310;8.646;2023-03-14T08:45:36;2.40;;;0.73;;
49139;SDS011;34959;49.310;8.646;2023-03-14T08:48:01;2.92;;;0.47;;
49139;SDS011;34959;49.310;8.646;2023-03-14T08:50:27;1.08;;;0.52;;
49139;SDS011;34959;49.310;8.646;2023-03-14T08:52:52;1.15;;;0.55;;
49139;SDS011;34959;49.310;8.646;2023-03-14T08:55:18;1.50;;;0.50;;
49139;SDS011;34959;49.310;8.646;2023-03-14T08:57:43;0.95;;;0.28;;
49139;SDS011;34959;49.310;8.646;2023-03-14T09:00:09;3.63;;;0.35;;
49139;SDS011;34959;49.310;8.646;2023-03-14T09:02:37;0.93;;;0.30;;
49139;SDS011;34959;49.310;8.646;2023-03-14T09:05:03;1.63;;;0.40;;
49139;SDS011;34959;49.310;8.646;2023-03-14T09:07:29;1.60;;;0.30;;
49139;SDS011;34959;49.310;8.646;2023-03-14T09:09:54;2.47;;;0.60;;
49139;SDS011;34959;49.310;8.646;2023-03-14T09:12:20;2.08;;;0.35;;
49139;SDS011;34959;49.310;8.646;2023-03-14T09:14:45;0.75;;;0.30;;
49139;SDS011;34959;49.310;8.646;2023-03-14T09:17:11;1.73;;;0.50;;
49139;SDS011;34959;49.310;8.646;2023-03-14T09:19:36;0.73;;;0.40;;
49139;SDS011;34959;49.310;8.646;2023-03-14T09:22:02;3.50;;;0.93;;
49139;SDS011;34959;49.310;8.646;2023-03-14T09:24:27;0.77;;;0.40;;
49139;SDS011;34959;49.310;8.646;2023-03-14T09:26:54;1.02;;;0.40;;
49139;SDS011;34959;49.310;8.646;2023-03-14T09:29:21;1.95;;;0.60;;
49139;SDS011;34959;49.310;8.646;2023-03-14T09:31:46;1.95;;;0.47;;
49139;SDS011;34959;49.310;8.646;2023-03-14T09:34:12;8.40;;;0.80;;
49139;SDS011;34959;49.310;8.646;2023-03-14T09:36:37;3.92;;;0.30;;
49139;SDS011;34959;49.310;8.646;2023-03-14T09:39:04;1.15;;;0.40;;
49139;SDS011;34959;49.310;8.646;2023-03-14T09:41:31;1.33;;;0.30;;
49139;SDS011;34959;49.310;8.646;2023-03-14T09:44:08;0.77;;;0.20;;
49139;SDS011;34959;49.310;8.646;2023-03-14T09:46:37;2.13;;;0.30;;
49139;SDS011;34959;49.310;8.646;2023-03-14T09:49:07;0.93;;;0.32;;
49139;SDS011;34959;49.310;8.646;2023-03-14T09:51:36;1.00;;;0.38;;
49139;SDS011;34959;49.310;8.646;2023-03-14T09:54:01;0.70;;;0.30;;
49139;SDS011;34959;49.310;8.646;2023-03-14T09:56:28;0.60;;;0.22;;
49139;SDS011;34959;49.310;8.646;2023-03-14T09:58:57;0.77;;;0.20;;
49139;SDS011;34959;49.310;8.646;2023-03-14T10:01:25;0.93;;;0.25;;
49139;SDS011;34959;49.310;8.646;2023-03-14T10:03:54;2.25;;;0.40;;
49139;SDS011;34959;49.310;8.646;2023-03-14T10:06:21;3.30;;;0.30;;
49139;SDS011;34959;49.310;8.646;2023-03-14T10:08:47;1.88;;;0.30;;
49139;SDS011;34959;49.310;8.646;2023-03-14T10:11:16;0.93;;;0.20;;
49139;SDS011;34959;49.310;8.646;2023-03-14T10:13:49;0.30;;;0.20;;
49139;SDS011;34959;49.310;8.646;2023-03-14T10:16:18;1.10;;;0.40;;
49139;SDS011;34959;49.310;8.646;2023-03-14T10:18:53;0.82;;;0.20;;
49139;SDS011;34959;49.310;8.646;2023-03-14T10:21:30;1.52;;;0.40;;
49139;SDS011;34959;49.310;8.646;2023-03-14T10:26:54;0.55;;;0.30;;
49139;SDS011;34959;49.310;8.646;2023-03-14T10:29:26;0.55;;;0.20;;
49139;SDS011;34959;49.310;8.646;2023-03-14T10:31:57;0.55;;;0.30;;
49139;SDS011;34959;49.310;8.646;2023-03-14T10:34:27;0.75;;;0.30;;
49139;SDS011;34959;49.310;8.646;2023-03-14T10:37:07;0.93;;;0.30;;
49139;SDS011;34959;49.310;8.646;2023-03-14T10:39:46;0.60;;;0.35;;
49139;SDS011;34959;49.310;8.646;2023-03-14T10:42:15;0.73;;;0.20;;
49139;SDS011;34959;49.310;8.646;2023-03-14T10:44:42;0.90;;;0.20;;
49139;SDS011;34959;49.310;8.646;2023-03-14T10:47:12;3.90;;;0.35;;
49139;SDS011;34959;49.310;8.646;2023-03-14T10:49:41;2.92;;;0.38;;
49139;SDS011;34959;49.310;8.646;2023-03-14T10:52:26;3.67;;;0.50;;
49139;SDS011;34959;49.310;8.646;2023-03-14T10:54:58;0.60;;;0.30;;
49139;SDS011;34959;49.310;8.646;2023-03-14T10:57:25;1.33;;;0.43;;
49139;SDS011;34959;49.310;8.646;2023-03-14T10:59:51;2.80;;;0.35;;
49139;SDS011;34959;49.310;8.646;2023-03-14T11:04:52;0.60;;;0.40;;
49139;SDS011;34959;49.310;8.646;2023-03-14T11:15:33;1.70;;;0.38;;
49139;SDS011;34959;49.310;8.646;2023-03-14T11:18:19;0.75;;;0.20;;
49139;SDS011;34959;49.310;8.646;2023-03-14T11:21:21;1.30;;;0.40;;
49139;SDS011;34959;49.310;8.646;2023-03-14T11:29:20;1.53;;;0.30;;
49139;SDS011;34959;49.310;8.646;2023-03-14T11:31:54;0.70;;;0.20;;
49139;SDS011;34959;49.310;8.646;2023-03-14T11:34:24;0.43;;;0.20;;
49139;SDS011;34959;49.310;8.646;2023-03-14T11:37:04;1.15;;;0.22;;
49139;SDS011;34959;49.310;8.646;2023-03-14T11:39:37;0.47;;;0.10;;
49139;SDS011;34959;49.310;8.646;2023-03-14T11:42:04;1.55;;;0.35;;
49139;SDS011;34959;49.310;8.646;2023-03-14T11:44:37;2.28;;;0.35;;
49139;SDS011;34959;49.310;8.646;2023-03-14T11:47:07;0.75;;;0.35;;
49139;SDS011;34959;49.310;8.646;2023-03-14T11:49:56;1.75;;;0.30;;
49139;SDS011;34959;49.310;8.646;2023-03-14T11:52:37;1.67;;;0.30;;
49139;SDS011;34959;49.310;8.646;2023-03-14T11:55:15;3.92;;;0.30;;
49139;SDS011;34959;49.310;8.646;2023-03-14T11:57:53;0.90;;;0.28;;
49139;SDS011;34959;49.310;8.646;2023-03-14T12:00:23;1.13;;;0.50;;
49139;SDS011;34959;49.310;8.646;2023-03-14T12:08:25;0.60;;;0.20;;
49139;SDS011;34959;49.310;8.646;2023-03-14T12:10:59;1.63;;;0.50;;
49139;SDS011;34959;49.310;8.646;2023-03-14T12:13:36;1.40;;;0.30;;
49139;SDS011;34959;49.310;8.646;2023-03-14T12:16:07;1.98;;;0.17;;
49139;SDS011;34959;49.310;8.646;2023-03-14T12:18:45;1.83;;;0.40;;
49139;SDS011;34959;49.310;8.646;2023-03-14T12:21:10;1.20;;;0.28;;
49139;SDS011;34959;49.310;8.646;2023-03-14T12:23:43;1.67;;;0.20;;
49139;SDS011;34959;49.310;8.646;2023-03-14T12:28:35;1.58;;;0.30;;
49139;SDS011;34959;49.310;8.646;2023-03-14T12:34:02;0.85;;;0.30;;
49139;SDS011;34959;49.310;8.646;2023-03-14T12:39:13;1.92;;;0.30;;
49139;SDS011;34959;49.310;8.646;2023-03-14T12:41:46;2.28;;;0.40;;
49139;SDS011;34959;49.310;8.646;2023-03-14T12:49:47;1.70;;;0.25;;
49139;SDS011;34959;49.310;8.646;2023-03-14T12:52:19;2.47;;;0.28;;
49139;SDS011;34959;49.310;8.646;2023-03-14T12:57:33;0.40;;;0.20;;
49139;SDS011;34959;49.310;8.646;2023-03-14T13:00:19;1.45;;;0.20;;
49139;SDS011;34959;49.310;8.646;2023-03-14T13:02:46;1.08;;;0.30;;
49139;SDS011;34959;49.310;8.646;2023-03-14T13:05:17;2.33;;;0.28;;
49139;SDS011;34959;49.310;8.646;2023-03-14T13:15:21;1.90;;;0.30;;
49139;SDS011;34959;49.310;8.646;2023-03-14T13:17:54;1.20;;;0.30;;
49139;SDS011;34959;49.310;8.646;2023-03-14T13:20:35;0.85;;;0.38;;
49139;SDS011;34959;49.310;8.646;2023-03-14T13:23:03;1.85;;;0.40;;
49139;SDS011;34959;49.310;8.646;2023-03-14T13:25:29;0.32;;;0.13;;
49139;SDS011;34959;49.310;8.646;2023-03-14T13:27:55;0.40;;;0.17;;
49139;SDS011;34959;49.310;8.646;2023-03-14T13:30:22;2.25;;;0.30;;
49139;SDS011;34959;49.310;8.646;2023-03-14T13:32:50;1.13;;;0.20;;
49139;SDS011;34959;49.310;8.646;2023-03-14T13:35:17;0.90;;;0.25;;
49139;SDS011;34959;49.310;8.646;2023-03-14T13:37:47;4.47;;;0.32;;
49139;SDS011;34959;49.310;8.646;2023-03-14T13:40:18;0.88;;;0.28;;
49139;SDS011;34959;49.310;8.646;2023-03-14T13:42:44;0.88;;;0.20;;
49139;SDS011;34959;49.310;8.646;2023-03-14T13:45:12;0.85;;;0.20;;
49139;SDS011;34959;49.310;8.646;2023-03-14T13:47:38;1.05;;;0.40;;
49139;SDS011;34959;49.310;8.646;2023-03-14T13:50:03;0.95;;;0.20;;
49139;SDS011;34959;49.310;8.646;2023-03-14T13:52:36;1.55;;;0.32;;
49139;SDS011;34959;49.310;8.646;2023-03-14T13:55:03;0.68;;;0.35;;
49139;SDS011;34959;49.310;8.646;2023-03-14T13:57:47;0.75;;;0.30;;
49139;SDS011;34959;49.310;8.646;2023-03-14T14:00:18;2.25;;;0.35;;
49139;SDS011;34959;49.310;8.646;2023-03-14T14:02:45;2.10;;;0.55;;
49139;SDS011;34959;49.310;8.646;2023-03-14T14:05:11;2.95;;;0.52;;
49139;SDS011;34959;49.310;8.646;2023-03-14T14:07:37;2.75;;;0.75;;
49139;SDS011;34959;49.310;8.646;2023-03-14T14:10:03;1.95;;;0.50;;
49139;SDS011;34959;49.310;8.646;2023-03-14T14:12:36;2.80;;;0.40;;
49139;SDS011;34959;49.310;8.646;2023-03-14T14:15:05;4.07;;;0.65;;
49139;SDS011;34959;49.310;8.646;2023-03-14T14:17:35;2.70;;;0.50;;
49139;SDS011;34959;49.310;8.646;2023-03-14T14:20:03;0.70;;;0.50;;
49139;SDS011;34959;49.310;8.646;2023-03-14T14:22:30;1.13;;;0.43;;
49139;SDS011;34959;49.310;8.646;2023-03-14T14:24:57;1.45;;;0.47;;
49139;SDS011;34959;49.310;8.646;2023-03-14T14:27:29;3.25;;;0.70;;
49139;SDS011;34959;49.310;8.646;2023-03-14T14:30:21;2.15;;;0.60;;
49139;SDS011;34959;49.310;8.646;2023-03-14T14:32:50;3.15;;;0.75;;
49139;SDS011;34959;49.310;8.646;2023-03-14T14:35:26;1.30;;;0.60;;
49139;SDS011;34959;49.310;8.646;2023-03-14T14:37:56;3.50;;;0.80;;
49139;SDS011;34959;49.310;8.646;2023-03-14T14:40:23;2.42;;;0.93;;
49139;SDS011;34959;49.310;8.646;2023-03-14T14:42:49;2.75;;;1.05;;
49139;SDS011;34959;49.310;8.646;2023-03-14T14:45:19;6.18;;;1.00;;
49139;SDS011;34959;49.310;8.646;2023-03-14T14:47:50;3.37;;;0.97;;
49139;SDS011;34959;49.310;8.646;2023-03-14T14:50:26;2.22;;;1.05;;
49139;SDS011;34959;49.310;8.646;2023-03-14T14:52:55;3.17;;;1.17;;
49139;SDS011;34959;49.310;8.646;2023-03-14T14:55:22;3.92;;;1.05;;
49139;SDS011;34959;49.310;8.646;2023-03-14T14:57:48;3.92;;;1.02;;
49139;SDS011;34959;49.310;8.646;2023-03-14T15:00:20;2.13;;;0.90;;
49139;SDS011;34959;49.310;8.646;2023-03-14T15:02:48;2.70;;;1.00;;
49139;SDS011;34959;49.310;8.646;2023-03-14T15:05:21;3.83;;;1.20;;
49139;SDS011;34959;49.310;8.646;2023-03-14T15:07:50;2.90;;;1.00;;
49139;SDS011;34959;49.310;8.646;2023-03-14T15:10:18;3.30;;;1.02;;
49139;SDS011;34959;49.310;8.646;2023-03-14T15:12:48;4.30;;;1.10;;
49139;SDS011;34959;49.310;8.646;2023-03-14T15:15:14;5.18;;;1.13;;
49139;SDS011;34959;49.310;8.646;2023-03-14T15:17:40;3.40;;;1.08;;
49139;SDS011;34959;49.310;8.646;2023-03-14T15:20:06;1.92;;;0.90;;
49139;SDS011;34959;49.310;8.646;2023-03-14T15:22:35;4.38;;;1.10;;
49139;SDS011;34959;49.310;8.646;2023-03-14T15:25:00;2.38;;;0.98;;
49139;SDS011;34959;49.310;8.646;2023-03-14T15:27:26;2.65;;;1.08;;
49139;SDS011;34959;49.310;8.646;2023-03-14T15:29:53;3.53;;;0.70;;
49139;SDS011;34959;49.310;8.646;2023-03-14T15:32:18;2.28;;;0.98;;
49139;SDS011;34959;49.310;8.646;2023-03-14T15:34:44;1.08;;;0.70;;
49139;SDS011;34959;49.310;8.646;2023-03-14T15:37:13;1.58;;;0.90;;
49139;SDS011;34959;49.310;8.646;2023-03-14T15:39:43;2.70;;;1.00;;
49139;SDS011;34959;49.310;8.646;2023-03-14T15:42:09;2.25;;;0.90;;
49139;SDS011;34959;49.310;8.646;2023-03-14T15:44:35;2.03;;;1.10;;
49139;SDS011;34959;49.310;8.646;2023-03-14T15:47:00;2.97;;;0.80;;